Time;durP1;ratioP1;P1;durP2;ratioP2;P2;SDS_P1;SDS_P2;PMS_P1;PMS_P2;Temp;Humidity;BMP_temperature;BMP_pressure;BME280_temperature;BME280_humidity;BME280_pressure;Samples;Min_cycle;Max_cycle;Signal;HPM_P1;HPM_P2
2024/04/24 00:00:10;;;;;;;1.50;1.00;;;;;;;10.07;100.00;100191.64;105899;1260;61748;-53
2024/04/24 00:02:39;;;;;;;1.50;1.10;;;;;;;10.05;100.00;100187.77;108830;1257;59734;-54
2024/04/24 00:05:06;;;;;;;1.20;1.00;;;;;;;10.05;100.00;100185.44;109099;1257;74610;-54
2024/04/24 00:07:33;;;;;;;1.10;1.00;;;;;;;10.06;100.00;100183.97;108959;1257;66934;-54
2024/04/24 00:10:00;;;;;;;1.80;1.00;;;;;;;10.08;100.00;100177.79;108934;1256;71239;-50
2024/04/24 00:12:26;;;;;;;1.30;1.20;;;;;;;10.12;100.00;100174.23;108997;1255;61371;-51
2024/04/24 00:14:53;;;;;;;2.00;1.00;;;;;;;10.16;100.00;100173.55;109137;1260;59087;-51
2024/04/24 00:17:20;;;;;;;1.90;1.10;;;;;;;10.18;100.00;100163.61;108959;1257;73646;-53
2024/04/24 00:19:46;;;;;;;1.80;1.20;;;;;;;10.19;100.00;100161.63;108989;1256;66758;-51
2024/04/24 00:22:13;;;;;;;1.40;1.00;;;;;;;10.19;100.00;100150.33;108947;1256;71829;-52
2024/04/24 00:24:40;;;;;;;2.50;1.20;;;;;;;10.18;100.00;100148.58;109026;1257;58965;-53
2024/04/24 00:27:06;;;;;;;3.50;0.90;;;;;;;10.15;100.00;100145.97;108859;1256;60055;-51
2024/04/24 00:29:33;;;;;;;1.00;0.90;;;;;;;10.14;100.00;100146.52;108946;1257;74931;-51
2024/04/24 00:32:04;;;;;;;0.90;0.80;;;;;;;10.14;100.00;100144.17;109010;1256;66855;-53
2024/04/24 00:34:31;;;;;;;0.90;0.80;;;;;;;10.17;100.00;100143.38;109044;1256;72325;-52
2024/04/24 00:36:58;;;;;;;1.10;0.80;;;;;;;10.18;100.00;100137.78;108969;1256;59019;-51
2024/04/24 00:39:25;;;;;;;2.10;0.80;;;;;;;10.21;100.00;100133.88;109123;1257;59118;-51
2024/04/24 00:41:51;;;;;;;0.90;0.80;;;;;;;10.26;100.00;100129.77;108973;1256;74572;-52
2024/04/24 00:44:18;;;;;;;0.90;0.80;;;;;;;10.28;100.00;100121.96;108948;1256;67899;-52
2024/04/24 00:46:45;;;;;;;2.20;0.80;;;;;;;10.29;100.00;100116.02;108975;1257;72658;-52
2024/04/24 00:49:12;;;;;;;1.10;0.90;;;;;;;10.29;100.00;100114.02;108803;1256;60287;-52
2024/04/24 00:51:38;;;;;;;1.20;1.00;;;;;;;10.28;100.00;100109.41;108561;1257;59493;-54
2024/04/24 00:54:05;;;;;;;1.00;0.90;;;;;;;10.27;100.00;100104.27;108978;1257;75861;-52
2024/04/24 00:56:32;;;;;;;1.70;0.80;;;;;;;10.24;100.00;100092.15;106007;1257;66959;-54
2024/04/24 00:58:59;;;;;;;4.20;0.70;;;;;;;10.22;100.00;100085.40;105635;1262;72467;-53
2024/04/24 01:01:25;;;;;;;0.80;0.70;;;;;;;10.22;100.00;100084.35;105541;1263;62229;-54
2024/04/24 01:03:52;;;;;;;0.90;0.80;;;;;;;10.22;100.00;100079.50;105816;1260;62124;-54
2024/04/24 01:06:19;;;;;;;1.20;0.70;;;;;;;10.24;100.00;100072.06;105777;1263;74883;-53
2024/04/24 01:08:46;;;;;;;0.80;0.70;;;;;;;10.27;100.00;100072.15;105897;1260;68282;-52
2024/04/24 01:11:12;;;;;;;1.60;0.90;;;;;;;10.29;100.00;100070.42;106038;1257;71457;-53
2024/04/24 01:13:39;;;;;;;0.80;0.70;;;;;;;10.29;100.00;100065.77;105900;1260;61539;-54
2024/04/24 01:16:19;;;;;;;2.40;0.80;;;;;;;10.30;100.00;100057.67;105929;1257;61925;-53
2024/04/24 01:18:54;;;;;;;0.80;0.80;;;;;;;10.29;100.00;100054.50;106121;1259;75168;-52
2024/04/24 01:21:23;;;;;;;0.90;0.80;;;;;;;10.28;100.00;100049.72;105770;1256;68639;-52
2024/04/24 01:23:58;;;;;;;0.80;0.60;;;;;;;10.24;100.00;100053.59;106160;1264;74073;-53
2024/04/24 01:26:37;;;;;;;0.80;0.80;;;;;;;10.22;100.00;100050.64;105840;1262;62221;-55
2024/04/24 01:29:03;;;;;;;1.50;0.70;;;;;;;10.21;100.00;100045.14;105939;1260;60810;-54
2024/04/24 01:31:30;;;;;;;0.70;0.70;;;;;;;10.20;100.00;100035.84;106060;1262;74616;-52
2024/04/24 01:33:57;;;;;;;0.80;0.70;;;;;;;10.22;100.00;100030.02;105873;1259;67496;-53
2024/04/24 01:36:24;;;;;;;0.70;0.60;;;;;;;10.24;100.00;100019.52;105861;1260;72957;-53
2024/04/24 01:38:51;;;;;;;0.80;0.70;;;;;;;10.26;100.00;100014.27;105918;1257;61301;-54
2024/04/24 01:41:18;;;;;;;1.00;0.80;;;;;;;10.27;100.00;100009.91;105879;1260;61231;-53
2024/04/24 01:43:45;;;;;;;0.80;0.70;;;;;;;10.28;100.00;100007.39;105885;1260;75096;-56
2024/04/24 01:46:12;;;;;;;2.50;0.70;;;;;;;10.27;100.00;100005.61;105804;1257;66495;-54
2024/04/24 01:48:38;;;;;;;0.70;0.70;;;;;;;10.25;100.00;99999.59;105824;1273;72936;-54
2024/04/24 01:51:05;;;;;;;1.10;0.70;;;;;;;10.22;100.00;99987.49;105876;1260;61439;-55
2024/04/24 01:53:32;;;;;;;0.80;0.60;;;;;;;10.20;100.00;99990.10;105830;1260;61353;-53
2024/04/24 01:55:59;;;;;;;0.60;0.60;;;;;;;10.18;100.00;99984.80;106098;1260;74910;-52
2024/04/24 01:58:26;;;;;;;0.60;0.60;;;;;;;10.18;100.00;99983.73;105932;1257;68036;-55
2024/04/24 02:00:53;;;;;;;1.10;0.60;;;;;;;10.18;100.00;99982.66;105845;1259;72847;-56
2024/04/24 02:03:20;;;;;;;1.20;0.70;;;;;;;10.20;100.00;99975.05;105793;1257;61128;-55
2024/04/24 02:05:47;;;;;;;0.70;0.70;;;;;;;10.22;100.00;99969.58;105827;1260;62082;-53
2024/04/24 02:08:13;;;;;;;4.60;0.60;;;;;;;10.24;100.00;99965.55;105850;1256;74400;-56
2024/04/24 02:10:40;;;;;;;0.70;0.70;;;;;;;10.25;100.00;99960.48;106128;1259;67875;-53
2024/04/24 02:13:07;;;;;;;0.60;0.60;;;;;;;10.25;100.00;99953.50;105863;1257;72752;-55
2024/04/24 02:15:34;;;;;;;0.70;0.70;;;;;;;10.23;100.00;99948.55;105891;1258;61344;-55
2024/04/24 02:18:05;;;;;;;1.30;0.80;;;;;;;10.21;100.00;99946.65;106053;1257;61498;-55
2024/04/24 02:20:35;;;;;;;0.70;0.60;;;;;;;10.18;100.00;99953.08;105829;1260;75033;-55
2024/04/24 02:23:05;;;;;;;1.70;0.60;;;;;;;10.14;100.00;99944.60;106083;1260;66967;-55
2024/04/24 02:25:36;;;;;;;0.50;0.50;;;;;;;10.11;100.00;99940.98;105945;1256;72435;-54
2024/04/24 02:28:06;;;;;;;2.80;0.70;;;;;;;10.10;100.00;99944.25;105989;1260;61294;-54
2024/04/24 02:30:33;;;;;;;0.70;0.60;;;;;;;10.09;100.00;99942.84;106157;1260;62089;-54
2024/04/24 02:33:00;;;;;;;1.00;0.50;;;;;;;10.10;100.00;99937.80;105911;1260;74933;-55
2024/04/24 02:35:28;;;;;;;1.00;0.60;;;;;;;10.12;100.00;99935.00;105782;1262;68057;-54
2024/04/24 02:37:55;;;;;;;0.70;0.70;;;;;;;10.14;100.00;99931.70;106099;1258;71320;-54
2024/04/24 02:40:22;;;;;;;0.70;0.70;;;;;;;10.11;100.00;99925.38;105856;1257;61253;-55
2024/04/24 02:42:49;;;;;;;0.70;0.70;;;;;;;10.09;100.00;99921.19;106822;1259;60865;-55
2024/04/24 02:45:16;;;;;;;1.20;0.70;;;;;;;10.05;100.00;99922.58;105915;1259;74853;-55
2024/04/24 02:47:42;;;;;;;2.00;1.00;;;;;;;10.04;100.00;99926.40;105846;1259;68644;-54
2024/04/24 02:50:09;;;;;;;0.70;0.60;;;;;;;10.02;100.00;99923.63;105924;1272;72700;-54
2024/04/24 02:52:36;;;;;;;0.80;0.70;;;;;;;10.00;100.00;99920.33;106679;1259;61237;-54
2024/04/24 02:55:03;;;;;;;0.90;0.60;;;;;;;9.99;100.00;99919.09;105905;1269;62125;-54
2024/04/24 02:57:30;;;;;;;3.40;0.70;;;;;;;10.01;100.00;99911.13;106171;1259;74793;-55
2024/04/24 02:59:57;;;;;;;0.70;0.60;;;;;;;10.01;100.00;99901.65;105836;1259;65952;-55
2024/04/24 03:02:24;;;;;;;0.80;0.70;;;;;;;10.00;100.00;99898.98;105893;1260;72938;-54
2024/04/24 03:04:51;;;;;;;0.80;0.80;;;;;;;10.00;100.00;99897.73;105933;1260;61206;-54
2024/04/24 03:07:17;;;;;;;0.90;0.70;;;;;;;10.00;100.00;99894.52;108997;1257;59350;-56
2024/04/24 03:09:44;;;;;;;0.90;0.70;;;;;;;9.97;100.00;99889.79;108940;1256;73176;-54
2024/04/24 03:12:11;;;;;;;3.50;0.80;;;;;;;9.93;100.00;99889.41;109039;1257;66573;-55
2024/04/24 03:14:37;;;;;;;0.60;0.60;;;;;;;9.92;100.00;99888.41;108995;1256;72429;-55
2024/04/24 03:17:04;;;;;;;1.50;0.60;;;;;;;9.91;100.00;99878.56;108991;1256;61869;-54
2024/04/24 03:19:31;;;;;;;0.90;0.60;;;;;;;9.92;100.00;99879.98;109031;1255;60085;-56
2024/04/24 03:21:57;;;;;;;1.10;0.60;;;;;;;9.93;100.00;99871.50;108988;1258;74566;-55
2024/04/24 03:24:24;;;;;;;1.30;0.60;;;;;;;9.95;100.00;99868.91;108972;1257;66276;-53
2024/04/24 03:26:51;;;;;;;0.60;0.60;;;;;;;9.97;100.00;99864.33;109133;1256;72699;-55
2024/04/24 03:29:17;;;;;;;1.30;0.70;;;;;;;9.98;100.00;99855.88;107418;1260;61656;-55
2024/04/24 03:31:47;;;;;;;0.50;0.50;;;;;;;9.95;100.00;99851.68;105868;1257;60909;-54
2024/04/24 03:34:14;;;;;;;0.70;0.70;;;;;;;9.94;100.00;99848.52;105884;1257;74457;-55
2024/04/24 03:36:42;;;;;;;2.10;0.60;;;;;;;9.94;100.00;99852.29;105924;1260;66936;-55
2024/04/24 03:39:08;;;;;;;0.50;0.50;;;;;;;9.95;100.00;99846.52;108935;1256;72600;-53
2024/04/24 03:41:35;;;;;;;0.40;0.40;;;;;;;9.99;100.00;99847.23;108884;1256;60905;-53
2024/04/24 03:44:02;;;;;;;0.60;0.50;;;;;;;10.02;100.00;99841.70;109034;1257;60098;-53
2024/04/24 03:46:29;;;;;;;0.90;0.50;;;;;;;10.05;100.00;99839.58;109088;1257;75035;-54
2024/04/24 03:48:57;;;;;;;0.80;0.60;;;;;;;10.08;100.00;99835.15;108914;1257;65915;-53
2024/04/24 03:51:24;;;;;;;3.80;0.60;;;;;;;10.08;100.00;99824.23;108958;1257;73121;-53
2024/04/24 03:53:50;;;;;;;0.50;0.50;;;;;;;10.06;100.00;99822.31;109089;1257;60418;-53
2024/04/24 03:56:17;;;;;;;0.60;0.60;;;;;;;10.04;100.00;99819.36;108941;1257;60314;-54
2024/04/24 03:58:44;;;;;;;1.40;0.50;;;;;;;10.03;100.00;99826.42;108985;1256;73802;-53
2024/04/24 04:01:10;;;;;;;0.70;0.50;;;;;;;10.04;100.00;99824.41;107632;1259;67006;-54
2024/04/24 04:03:37;;;;;;;2.30;0.40;;;;;;;10.06;100.00;99820.89;106011;1260;71909;-54
2024/04/24 04:06:04;;;;;;;0.70;0.40;;;;;;;10.07;100.00;99809.37;105527;1256;61259;-54
2024/04/24 04:08:31;;;;;;;0.50;0.50;;;;;;;10.11;100.00;99803.29;106004;1260;59946;-54
2024/04/24 04:10:58;;;;;;;0.50;0.50;;;;;;;10.12;100.00;99794.40;105889;1264;76127;-54
2024/04/24 04:13:24;;;;;;;6.30;1.20;;;;;;;10.12;100.00;99794.05;105964;1260;66794;-54
2024/04/24 04:15:51;;;;;;;0.50;0.50;;;;;;;10.12;100.00;99791.77;107701;1260;72875;-54
2024/04/24 04:18:18;;;;;;;0.70;0.50;;;;;;;10.12;100.00;99790.88;106029;1260;61973;-55
2024/04/24 04:20:45;;;;;;;0.60;0.50;;;;;;;10.10;100.00;99783.77;105933;1261;60984;-55
2024/04/24 04:23:12;;;;;;;3.00;0.40;;;;;;;10.10;100.00;99781.27;105955;1261;75619;-56
2024/04/24 04:25:39;;;;;;;1.00;0.40;;;;;;;10.10;100.00;99774.27;109087;1257;66754;-55
2024/04/24 04:28:05;;;;;;;0.40;0.40;;;;;;;10.13;100.00;99771.23;109095;1257;73768;-56
2024/04/24 04:30:32;;;;;;;0.40;0.40;;;;;;;10.17;100.00;99774.50;106616;1269;61902;-54
2024/04/24 04:32:59;;;;;;;0.40;0.40;;;;;;;10.19;100.00;99772.46;105612;1266;61272;-54
2024/04/24 04:35:26;;;;;;;0.50;0.50;;;;;;;10.22;100.00;99774.10;105845;1260;204231;-55
2024/04/24 04:39:01;;;;;;;0.40;0.40;;;;;;;10.27;100.00;99775.85;102836;1305;601010;-54
2024/04/24 04:41:28;;;;;;;2.20;0.50;;;;;;;10.28;100.00;99779.42;105425;1269;59180;-55
2024/04/24 04:43:56;;;;;;;0.60;0.50;;;;;;;10.29;100.00;99775.77;105767;1264;60616;-54
2024/04/24 04:46:23;;;;;;;0.50;0.50;;;;;;;10.29;100.00;99766.59;105556;1263;73319;-56
2024/04/24 04:48:49;;;;;;;0.40;0.40;;;;;;;10.29;100.00;99759.45;105292;1268;67503;-53
2024/04/24 04:51:19;;;;;;;0.30;0.30;;;;;;;10.26;100.00;99751.48;105399;1270;73169;-55
2024/04/24 04:53:45;;;;;;;0.40;0.40;;;;;;;10.25;100.00;99747.59;105309;1266;238089;-56
2024/04/24 04:56:12;;;;;;;0.50;0.40;;;;;;;10.23;100.00;99746.25;105407;1266;60506;-55
2024/04/24 04:58:39;;;;;;;0.50;0.40;;;;;;;10.21;100.00;99738.46;105446;1266;72948;-55
2024/04/24 05:01:06;;;;;;;0.70;0.40;;;;;;;10.22;100.00;99733.92;105540;1266;67073;-55
2024/04/24 05:03:33;;;;;;;0.60;0.40;;;;;;;10.24;100.00;99725.92;105524;1264;73585;-55
2024/04/24 05:06:00;;;;;;;0.80;0.50;;;;;;;10.27;100.00;99725.46;105533;1266;61623;-56
2024/04/24 05:08:26;;;;;;;0.30;0.30;;;;;;;10.29;100.00;99720.89;107838;1264;60446;-54
2024/04/24 05:10:53;;;;;;;0.60;0.40;;;;;;;10.32;100.00;99716.44;105437;1267;74297;-56
2024/04/24 05:13:20;;;;;;;0.40;0.40;;;;;;;10.33;100.00;99716.35;105370;1264;66849;-54
2024/04/24 05:15:47;;;;;;;0.50;0.50;;;;;;;10.34;100.00;99714.02;105483;1264;72434;-55
2024/04/24 05:18:13;;;;;;;0.50;0.50;;;;;;;10.33;100.00;99708.82;105399;1266;60466;-55
2024/04/24 05:20:40;;;;;;;0.50;0.50;;;;;;;10.36;100.00;99712.11;105393;1266;60575;-55
2024/04/24 05:23:07;;;;;;;0.50;0.40;;;;;;;10.39;100.00;99714.45;105345;1266;73832;-53
2024/04/24 05:25:36;;;;;;;0.40;0.40;;;;;;;10.39;100.00;99709.40;105397;1266;68007;-55
2024/04/24 05:30:52;;;;;;;0.70;0.50;;;;;;;10.51;100.00;99700.77;107377;1266;61368;-56
2024/04/24 05:33:18;;;;;;;0.70;0.50;;;;;;;10.56;100.00;99696.37;105354;1263;61055;-56
2024/04/24 05:35:45;;;;;;;1.80;0.50;;;;;;;10.62;100.00;99685.36;106284;1260;73419;-54
2024/04/24 05:38:12;;;;;;;0.50;0.50;;;;;;;10.71;100.00;99686.16;105837;1256;66867;-55
2024/04/24 05:40:39;;;;;;;1.90;0.50;;;;;;;10.83;100.00;99681.80;105791;1260;72550;-54
2024/04/24 05:43:06;;;;;;;0.60;0.50;;;;;;;10.90;100.00;99674.40;105857;1258;61030;-54
2024/04/24 05:45:33;;;;;;;0.60;0.60;;;;;;;10.97;100.00;99662.02;106527;1257;60629;-53
2024/04/24 05:48:01;;;;;;;0.70;0.70;;;;;;;11.02;100.00;99654.05;105864;1260;73469;-55
2024/04/24 05:50:27;;;;;;;0.50;0.50;;;;;;;11.05;100.00;99647.09;105874;1260;66054;-55
2024/04/24 05:52:54;;;;;;;1.50;0.60;;;;;;;11.06;100.00;99636.66;105783;1269;72627;-54
2024/04/24 05:55:22;;;;;;;0.50;0.50;;;;;;;11.06;100.00;99639.52;105814;1260;60497;-55
2024/04/24 05:57:49;;;;;;;1.50;0.50;;;;;;;11.05;100.00;99646.17;108862;1256;58831;-54
2024/04/24 06:00:16;;;;;;;0.60;0.60;;;;;;;11.07;100.00;99641.20;108950;1257;73839;-55
2024/04/24 06:02:42;;;;;;;0.60;0.50;;;;;;;11.13;100.00;99634.07;108942;1257;65188;-56
2024/04/24 06:05:09;;;;;;;2.00;0.60;;;;;;;11.20;100.00;99634.27;108924;1256;72744;-54
2024/04/24 06:07:36;;;;;;;0.70;0.60;;;;;;;11.24;100.00;99629.19;108862;1256;60675;-55
2024/04/24 06:10:03;;;;;;;1.20;0.60;;;;;;;11.26;100.00;99622.25;108946;1257;58901;-55
2024/04/24 06:12:30;;;;;;;1.00;0.50;;;;;;;11.27;100.00;99622.02;108866;1256;73553;-55
2024/04/24 06:14:57;;;;;;;2.70;0.50;;;;;;;11.26;100.00;99614.70;108788;1256;68176;-55
2024/04/24 06:17:23;;;;;;;0.70;0.60;;;;;;;11.27;100.00;99606.40;108968;1256;72565;-56
2024/04/24 06:19:50;;;;;;;1.10;0.50;;;;;;;11.27;100.00;99597.59;108866;1256;60944;-55
2024/04/24 06:22:17;;;;;;;0.90;0.60;;;;;;;11.24;100.00;99587.16;108949;1257;61145;-55
2024/04/24 06:24:44;;;;;;;0.60;0.60;;;;;;;11.21;100.00;99586.80;109029;1257;73701;-56
2024/04/24 06:27:10;;;;;;;4.00;0.60;;;;;;;11.18;100.00;99577.59;108970;1256;65726;-55
2024/04/24 06:29:40;;;;;;;1.00;0.90;;;;;;;11.15;100.00;99573.30;108933;1257;72668;-55
2024/04/24 06:32:06;;;;;;;1.60;0.90;;;;;;;11.14;100.00;99561.86;106428;1257;61760;-56
2024/04/24 06:34:33;;;;;;;1.60;0.70;;;;;;;11.14;100.00;99563.48;105839;1260;61320;-55
2024/04/24 06:37:00;;;;;;;0.50;0.50;;;;;;;11.12;100.00;99560.15;108741;1257;74611;-55
2024/04/24 06:39:27;;;;;;;1.30;0.60;;;;;;;11.11;100.00;99558.79;106185;1258;66801;-56
2024/04/24 06:41:53;;;;;;;1.40;0.60;;;;;;;11.10;100.00;99559.90;105847;1272;73597;-55
2024/04/24 06:44:20;;;;;;;2.00;0.60;;;;;;;11.08;100.00;99554.25;105837;1260;60466;-55
2024/04/24 06:46:47;;;;;;;0.70;0.70;;;;;;;11.06;100.00;99552.55;106088;1260;60491;-54
2024/04/24 06:49:14;;;;;;;0.70;0.70;;;;;;;11.07;100.00;99555.58;105816;1260;73457;-56
2024/04/24 06:51:41;;;;;;;0.80;0.60;;;;;;;11.04;100.00;99546.98;105805;1260;66477;-56
2024/04/24 06:54:08;;;;;;;0.90;0.80;;;;;;;10.99;100.00;99543.43;105846;1272;72960;-55
2024/04/24 06:56:36;;;;;;;2.30;0.70;;;;;;;10.95;100.00;99538.63;105817;1257;60531;-55
2024/04/24 06:59:03;;;;;;;1.00;0.70;;;;;;;10.92;100.00;99540.36;106018;1261;60110;-55
2024/04/24 07:01:30;;;;;;;0.60;0.60;;;;;;;10.91;100.00;99546.38;105879;1260;71972;-54
2024/04/24 07:03:57;;;;;;;1.40;0.70;;;;;;;10.92;100.00;99545.23;106504;1257;67070;-55
2024/04/24 07:06:23;;;;;;;1.80;0.60;;;;;;;10.97;100.00;99541.58;105797;1260;72661;-54
2024/04/24 07:08:51;;;;;;;1.40;0.60;;;;;;;11.00;100.00;99537.08;105910;1259;61439;-55
2024/04/24 07:11:18;;;;;;;0.70;0.70;;;;;;;11.00;100.00;99527.92;108646;1257;61154;-56
2024/04/24 07:13:45;;;;;;;1.10;0.90;;;;;;;10.98;100.00;99522.27;106591;1260;74168;-55
2024/04/24 07:16:11;;;;;;;3.30;0.80;;;;;;;10.96;100.00;99520.44;105835;1257;67370;-55
2024/04/24 07:18:38;;;;;;;2.70;0.70;;;;;;;10.93;100.00;99516.46;105867;1260;72327;-53
2024/04/24 07:21:05;;;;;;;0.70;0.60;;;;;;;10.93;100.00;99516.81;105674;1265;63967;-55
2024/04/24 07:23:32;;;;;;;0.60;0.60;;;;;;;10.94;100.00;99520.38;106433;1260;60159;-55
2024/04/24 07:25:59;;;;;;;0.80;0.70;;;;;;;10.94;100.00;99515.48;105854;1260;74525;-55
2024/04/24 07:28:26;;;;;;;2.30;0.70;;;;;;;10.94;100.00;99511.90;105831;1257;66620;-55
2024/04/24 07:30:52;;;;;;;1.90;0.70;;;;;;;10.94;100.00;99509.06;106392;1251;72444;-55
2024/04/24 07:33:20;;;;;;;2.40;0.70;;;;;;;10.95;100.00;99500.55;106040;1257;63361;-55
2024/04/24 07:35:47;;;;;;;1.30;0.80;;;;;;;10.97;100.00;99502.22;106064;1257;60503;-55
2024/04/24 07:38:15;;;;;;;2.00;1.00;;;;;;;10.99;100.00;99501.04;106025;1254;74308;-54
2024/04/24 07:40:43;;;;;;;1.30;0.60;;;;;;;11.01;100.00;99500.39;106398;1256;67192;-54
2024/04/24 07:43:13;;;;;;;0.70;0.70;;;;;;;11.03;100.00;99494.04;106420;1256;72784;-56
2024/04/24 07:45:41;;;;;;;2.10;0.70;;;;;;;11.05;100.00;99493.77;106135;1257;60887;-55
2024/04/24 07:48:08;;;;;;;2.20;0.60;;;;;;;11.06;100.00;99484.73;106493;1252;60536;-53
2024/04/24 07:50:35;;;;;;;3.00;0.80;;;;;;;11.06;100.00;99481.27;106214;1255;74852;-55
2024/04/24 07:53:02;;;;;;;2.70;0.70;;;;;;;11.05;100.00;99478.31;106129;1256;66991;-54
2024/04/24 07:55:29;;;;;;;1.00;0.60;;;;;;;11.05;100.00;99473.29;106113;1252;73488;-55
2024/04/24 07:57:56;;;;;;;1.20;1.10;;;;;;;11.05;100.00;99470.77;106049;1253;62867;-55
2024/04/24 08:00:22;;;;;;;1.30;0.70;;;;;;;11.05;100.00;99461.77;106238;1257;60206;-57
2024/04/24 08:02:49;;;;;;;1.30;0.80;;;;;;;11.05;100.00;99450.12;106242;1257;72487;-55
2024/04/24 08:05:16;;;;;;;0.90;0.70;;;;;;;11.02;100.00;99438.42;106151;1256;68011;-54
2024/04/24 08:07:46;;;;;;;2.20;0.80;;;;;;;11.02;100.00;99431.41;106462;1256;73475;-55
2024/04/24 08:10:13;;;;;;;0.70;0.70;;;;;;;11.03;100.00;99431.35;106541;1256;61489;-56
2024/04/24 08:12:40;;;;;;;1.60;0.80;;;;;;;11.05;100.00;99417.99;106160;1264;60368;-55
2024/04/24 08:15:07;;;;;;;1.00;0.80;;;;;;;11.06;100.00;99410.38;106207;1254;72979;-54
2024/04/24 08:17:34;;;;;;;2.60;0.80;;;;;;;11.07;100.00;99414.08;106149;1254;67548;-56
2024/04/24 08:20:02;;;;;;;1.70;0.90;;;;;;;11.04;100.00;99414.24;106620;1251;72859;-54
2024/04/24 08:22:29;;;;;;;1.90;0.90;;;;;;;11.01;100.00;99403.81;106450;1256;61765;-54
2024/04/24 08:24:56;;;;;;;1.20;0.80;;;;;;;11.00;100.00;99394.53;106102;1257;61196;-54
2024/04/24 08:27:24;;;;;;;2.80;0.80;;;;;;;10.99;100.00;99394.02;106086;1256;73871;-54
2024/04/24 08:29:50;;;;;;;1.60;0.80;;;;;;;10.97;100.00;99387.16;106129;1257;67867;-55
2024/04/24 08:32:17;;;;;;;1.70;0.90;;;;;;;10.96;100.00;99387.95;106148;1257;72502;-54
2024/04/24 08:34:44;;;;;;;1.10;0.90;;;;;;;10.95;100.00;99379.56;106096;1256;61615;-54
2024/04/24 08:37:11;;;;;;;1.20;1.00;;;;;;;10.96;100.00;99384.00;106114;1266;60485;-52
2024/04/24 08:39:37;;;;;;;1.80;0.80;;;;;;;10.94;100.00;99385.14;106039;1256;74283;-54
2024/04/24 08:42:05;;;;;;;2.70;1.00;;;;;;;10.94;100.00;99389.31;106120;1266;67600;-54
2024/04/24 08:44:32;;;;;;;2.00;1.00;;;;;;;10.93;100.00;99394.91;106477;1254;73400;-55
2024/04/24 08:46:59;;;;;;;2.70;0.80;;;;;;;10.93;100.00;99394.54;106334;1260;62290;-55
2024/04/24 08:49:26;;;;;;;1.20;0.80;;;;;;;10.94;100.00;99386.60;106109;1258;60987;-55
2024/04/24 08:51:54;;;;;;;1.90;1.00;;;;;;;10.95;100.00;99374.35;106195;1260;74405;-54
2024/04/24 08:54:20;;;;;;;2.50;1.00;;;;;;;10.94;100.00;99360.23;109220;1254;65523;-54
2024/04/24 08:57:00;;;;;;;1.30;1.20;;;;;;;10.93;100.00;99351.10;109150;1254;71366;-54
2024/04/24 08:59:31;;;;;;;1.10;1.00;;;;;;;10.92;100.00;99357.08;109175;1253;60610;-55
2024/04/24 09:02:06;;;;;;;1.40;1.00;;;;;;;10.91;100.00;99355.67;109306;1255;60892;-56
2024/04/24 09:04:37;;;;;;;1.50;1.10;;;;;;;10.89;100.00;99356.16;109031;1254;76121;-54
2024/04/24 09:07:04;;;;;;;1.70;0.90;;;;;;;10.87;100.00;99349.66;109273;1254;64863;-55
2024/04/24 09:09:31;;;;;;;2.90;0.90;;;;;;;10.85;100.00;99346.70;109074;1254;72303;-55
2024/04/24 09:12:07;;;;;;;2.40;1.20;;;;;;;10.85;100.00;99348.33;109190;1254;62777;-55
2024/04/24 09:14:34;;;;;;;1.80;0.90;;;;;;;10.86;100.00;99338.25;107438;1254;60960;-54
2024/04/24 09:17:02;;;;;;;2.80;1.20;;;;;;;10.86;100.00;99324.74;106299;1267;75592;-56
2024/04/24 09:19:30;;;;;;;1.60;0.80;;;;;;;10.86;100.00;99313.45;106416;1257;67454;-55
2024/04/24 09:21:57;;;;;;;1.80;1.10;;;;;;;10.87;100.00;99325.81;106410;1257;72672;-56
2024/04/24 09:24:24;;;;;;;1.30;1.10;;;;;;;10.87;100.00;99347.14;106225;1258;61273;-56
2024/04/24 09:26:51;;;;;;;1.10;1.00;;;;;;;10.88;100.00;99340.25;109158;1254;59925;-54
2024/04/24 09:29:18;;;;;;;1.40;1.20;;;;;;;10.90;100.00;99322.37;109159;1253;72728;-56
2024/04/24 09:31:44;;;;;;;2.20;1.60;;;;;;;10.90;100.00;99284.69;109227;1251;67462;-54
2024/04/24 09:34:12;;;;;;;2.50;2.20;;;;;;;10.89;100.00;99261.58;109252;1256;71798;-56
2024/04/24 09:36:40;;;;;;;2.70;2.10;;;;;;;10.89;100.00;99255.47;109295;1251;61812;-55
2024/04/24 09:39:15;;;;;;;1.60;1.30;;;;;;;10.87;100.00;99265.29;108981;1257;60322;-55
2024/04/24 09:41:43;;;;;;;2.30;1.20;;;;;;;10.85;100.00;99260.36;106397;1254;74237;-55
2024/04/24 09:44:13;;;;;;;2.80;1.10;;;;;;;10.85;100.00;99265.73;106158;1258;66901;-55
2024/04/24 09:46:53;;;;;;;1.80;1.10;;;;;;;10.87;100.00;99269.25;106229;1258;71599;-55
2024/04/24 09:49:20;;;;;;;1.50;1.00;;;;;;;10.87;100.00;99293.84;106424;1257;61304;-56
2024/04/24 09:51:49;;;;;;;1.20;1.10;;;;;;;10.89;100.00;99316.89;106149;1265;60882;-55
2024/04/24 09:54:17;;;;;;;1.40;1.20;;;;;;;10.89;100.00;99309.83;106822;1257;74996;-57
2024/04/24 09:56:47;;;;;;;1.40;1.30;;;;;;;10.93;100.00;99309.29;106303;1256;67013;-54
2024/04/24 09:59:15;;;;;;;2.20;1.00;;;;;;;10.94;100.00;99300.42;106996;1258;72654;-53
2024/04/24 10:01:46;;;;;;;1.50;0.90;;;;;;;10.95;100.00;99280.64;106402;1254;61153;-57
2024/04/24 10:04:15;;;;;;;1.70;1.20;;;;;;;10.96;100.00;99280.95;106139;1257;61020;-57
2024/04/24 10:06:45;;;;;;;1.20;1.00;;;;;;;10.97;100.00;99304.41;106194;1256;73357;-54
2024/04/24 10:09:12;;;;;;;3.40;1.10;;;;;;;10.98;100.00;99309.54;106536;1256;67870;-53
2024/04/24 10:11:43;;;;;;;1.00;0.90;;;;;;;11.00;100.00;99279.96;108953;1257;73165;-55
2024/04/24 10:14:10;;;;;;;1.50;0.90;;;;;;;11.01;100.00;99255.89;106253;1252;61307;-54
2024/04/24 10:16:37;;;;;;;1.30;1.10;;;;;;;11.00;100.00;99249.41;107039;1260;61333;-56
2024/04/24 10:19:04;;;;;;;1.20;0.80;;;;;;;11.02;100.00;99240.39;106208;1254;76453;-54
2024/04/24 10:21:31;;;;;;;0.80;0.80;;;;;;;11.03;100.00;99233.70;106251;1255;67044;-55
2024/04/24 10:23:58;;;;;;;1.30;0.90;;;;;;;11.03;100.00;99228.29;105998;1258;73044;-55
2024/04/24 10:26:24;;;;;;;1.00;0.80;;;;;;;11.05;100.00;99237.33;106222;1256;61313;-55
2024/04/24 10:28:51;;;;;;;1.90;0.80;;;;;;;11.07;100.00;99235.55;105928;1257;61915;-56
2024/04/24 10:31:18;;;;;;;1.10;1.00;;;;;;;11.12;100.00;99216.29;105886;1264;74908;-56
2024/04/24 10:33:45;;;;;;;1.40;0.80;;;;;;;11.15;100.00;99225.05;106094;1257;66888;-54
2024/04/24 10:36:12;;;;;;;1.40;0.70;;;;;;;11.16;100.00;99219.77;106060;1257;72423;-55
2024/04/24 10:38:42;;;;;;;2.20;0.90;;;;;;;11.16;100.00;99211.31;105885;1268;61462;-54
2024/04/24 10:41:09;;;;;;;1.70;1.00;;;;;;;11.17;100.00;99212.04;106824;1259;59727;-53
2024/04/24 10:43:36;;;;;;;0.80;0.70;;;;;;;11.17;100.00;99213.41;106104;1259;74544;-55
2024/04/24 10:46:05;;;;;;;1.90;1.30;;;;;;;11.18;100.00;99207.84;107397;1258;68192;-53
2024/04/24 10:48:56;;;;;;;3.70;0.80;;;;;;;11.19;100.00;99207.07;105952;1254;72556;-56
2024/04/24 10:51:29;;;;;;;1.00;0.70;;;;;;;11.22;100.00;99203.42;106611;1259;61326;-55
2024/04/24 10:54:06;;;;;;;0.90;0.80;;;;;;;11.24;100.00;99204.60;107874;1257;61234;-54
2024/04/24 10:56:33;;;;;;;1.50;0.90;;;;;;;11.24;100.00;99196.69;106078;1259;74919;-54
2024/04/24 10:59:06;;;;;;;2.20;0.80;;;;;;;11.25;100.00;99198.41;106078;1260;67025;-55
2024/04/24 11:01:32;;;;;;;1.50;1.00;;;;;;;11.25;100.00;99192.84;106215;1276;72898;-55
2024/04/24 11:04:13;;;;;;;2.80;0.90;;;;;;;11.25;100.00;99183.85;106196;1254;61670;-54
2024/04/24 11:06:41;;;;;;;0.90;0.60;;;;;;;11.27;100.00;99176.77;105951;1270;61343;-54
2024/04/24 11:09:08;;;;;;;1.70;0.90;;;;;;;11.29;100.00;99167.83;105987;1267;75361;-53
2024/04/24 11:11:34;;;;;;;0.90;0.80;;;;;;;11.31;100.00;99169.27;106027;1257;66807;-55
2024/04/24 11:14:02;;;;;;;1.20;0.90;;;;;;;11.33;100.00;99161.64;105992;1269;72273;-53
2024/04/24 11:16:29;;;;;;;0.80;0.80;;;;;;;11.33;100.00;99162.17;106118;1259;61195;-56
2024/04/24 11:18:56;;;;;;;2.30;1.00;;;;;;;11.34;100.00;99158.35;106532;1260;61339;-56
2024/04/24 11:21:24;;;;;;;4.80;0.90;;;;;;;11.33;100.00;99135.91;106037;1258;75269;-55